sensor_id;sensor_type;location;lat;lon;timestamp;pressure;altitude;pressure_sealevel;temperature;humidity
30598;BME280;17365;48.878;8.334;2023-05-25T00:01:23;100518.00;;;10.85;63.59
30598;BME280;17365;48.878;8.334;2023-05-25T00:03:50;100520.56;;;10.82;63.88
30598;BME280;17365;48.878;8.334;2023-05-25T00:06:16;100521.53;;;10.97;63.08
30598;BME280;17365;48.878;8.334;2023-05-25T00:08:42;100526.38;;;10.52;65.18
30598;BME280;17365;48.878;8.334;2023-05-25T00:11:07;100520.28;;;10.46;65.38
30598;BME280;17365;48.878;8.334;2023-05-25T00:13:32;100517.78;;;10.57;65.03
30598;BME280;17365;48.878;8.334;2023-05-25T00:15:57;100517.66;;;10.42;66.20
30598;BME280;17365;48.878;8.334;2023-05-25T00:18:23;100515.03;;;10.40;66.07
30598;BME280;17365;48.878;8.334;2023-05-25T00:20:48;100506.59;;;10.64;64.57
30598;BME280;17365;48.878;8.334;2023-05-25T00:23:14;100503.03;;;10.53;65.09
30598;BME280;17365;48.878;8.334;2023-05-25T00:25:39;100502.91;;;10.38;66.08
30598;BME280;17365;48.878;8.334;2023-05-25T00:28:04;100491.84;;;10.56;65.32
30598;BME280;17365;48.878;8.334;2023-05-25T00:30:30;100495.75;;;10.14;67.78
30598;BME280;17365;48.878;8.334;2023-05-25T00:32:55;100476.88;;;10.26;67.46
30598;BME280;17365;48.878;8.334;2023-05-25T00:35:20;100486.38;;;10.22;67.24
30598;BME280;17365;48.878;8.334;2023-05-25T00:37:46;100488.81;;;10.10;68.19
30598;BME280;17365;48.878;8.334;2023-05-25T00:40:13;100487.38;;;10.39;66.11
30598;BME280;17365;48.878;8.334;2023-05-25T00:42:40;100483.06;;;10.41;66.54
30598;BME280;17365;48.878;8.334;2023-05-25T00:45:05;100478.78;;;10.46;66.02
30598;BME280;17365;48.878;8.334;2023-05-25T00:47:31;100478.78;;;10.46;66.13
30598;BME280;17365;48.878;8.334;2023-05-25T00:49:57;100481.88;;;10.09;68.30
30598;BME280;17365;48.878;8.334;2023-05-25T00:52:22;100490.38;;;9.96;68.96
30598;BME280;17365;48.878;8.334;2023-05-25T00:54:47;100494.44;;;9.74;70.09
30598;BME280;17365;48.878;8.334;2023-05-25T00:57:15;100491.44;;;10.17;67.67
30598;BME280;17365;48.878;8.334;2023-05-25T00:59:43;100491.19;;;9.88;69.78
30598;BME280;17365;48.878;8.334;2023-05-25T01:02:10;100496.41;;;9.96;69.10
30598;BME280;17365;48.878;8.334;2023-05-25T01:04:39;100491.44;;;10.17;68.08
30598;BME280;17365;48.878;8.334;2023-05-25T01:07:05;100488.03;;;10.20;67.73
30598;BME280;17365;48.878;8.334;2023-05-25T01:09:32;100488.56;;;9.85;69.65
30598;BME280;17365;48.878;8.334;2023-05-25T01:11:59;100493.44;;;9.61;71.54
30598;BME280;17365;48.878;8.334;2023-05-25T01:14:25;100493.03;;;10.00;69.49
30598;BME280;17365;48.878;8.334;2023-05-25T01:16:51;100495.25;;;9.68;70.73
30598;BME280;17365;48.878;8.334;2023-05-25T01:19:16;100486.78;;;9.84;69.92
30598;BME280;17365;48.878;8.334;2023-05-25T01:21:46;100495.34;;;9.74;70.56
30598;BME280;17365;48.878;8.334;2023-05-25T01:27:06;100500.44;;;9.68;71.46
30598;BME280;17365;48.878;8.334;2023-05-25T01:29:33;100501.22;;;9.61;71.11
30598;BME280;17365;48.878;8.334;2023-05-25T01:31:59;100506.41;;;9.61;71.35
30598;BME280;17365;48.878;8.334;2023-05-25T01:34:26;100498.59;;;9.58;71.66
30598;BME280;17365;48.878;8.334;2023-05-25T01:36:52;100502.75;;;9.44;72.62
30598;BME280;17365;48.878;8.334;2023-05-25T01:39:19;100496.72;;;9.45;72.60
30598;BME280;17365;48.878;8.334;2023-05-25T01:41:45;100500.56;;;9.77;70.91
30598;BME280;17365;48.878;8.334;2023-05-25T01:44:10;100501.22;;;9.62;71.29
30598;BME280;17365;48.878;8.334;2023-05-25T01:46:37;100501.00;;;9.43;72.76
30598;BME280;17365;48.878;8.334;2023-05-25T01:54:17;100495.28;;;9.70;71.66
30598;BME280;17365;48.878;8.334;2023-05-25T01:56:43;100491.19;;;9.88;70.41
30598;BME280;17365;48.878;8.334;2023-05-25T01:59:10;100497.59;;;9.45;73.14
30598;BME280;17365;48.878;8.334;2023-05-25T02:01:37;100495.75;;;9.37;73.34
30598;BME280;17365;48.878;8.334;2023-05-25T02:04:03;100507.97;;;9.50;72.94
30598;BME280;17365;48.878;8.334;2023-05-25T02:06:28;100506.22;;;9.47;72.85
30598;BME280;17365;48.878;8.334;2023-05-25T02:08:54;100513.47;;;9.06;74.34
30598;BME280;17365;48.878;8.334;2023-05-25T02:11:19;100519.03;;;9.37;73.55
30598;BME280;17365;48.878;8.334;2023-05-25T02:13:44;100521.44;;;9.23;73.69
30598;BME280;17365;48.878;8.334;2023-05-25T02:16:09;100515.59;;;9.38;73.11
30598;BME280;17365;48.878;8.334;2023-05-25T02:18:35;100519.00;;;9.33;73.68
30598;BME280;17365;48.878;8.334;2023-05-25T02:21:01;100511.50;;;9.52;72.99
30598;BME280;17365;48.878;8.334;2023-05-25T02:23:26;100513.81;;;9.32;73.62
30598;BME280;17365;48.878;8.334;2023-05-25T02:25:51;100514.91;;;9.51;72.82
30598;BME280;17365;48.878;8.334;2023-05-25T02:28:16;100512.44;;;9.61;72.52
30598;BME280;17365;48.878;8.334;2023-05-25T02:30:41;100506.41;;;9.62;72.32
30598;BME280;17365;48.878;8.334;2023-05-25T02:33:07;100503.06;;;9.71;71.91
30598;BME280;17365;48.878;8.334;2023-05-25T02:35:32;100500.34;;;9.62;72.52
30598;BME280;17365;48.878;8.334;2023-05-25T02:37:57;100506.53;;;9.73;71.86
30598;BME280;17365;48.878;8.334;2023-05-25T02:40:23;100496.16;;;9.70;72.17
30598;BME280;17365;48.878;8.334;2023-05-25T02:42:48;100507.31;;;9.63;72.52
30598;BME280;17365;48.878;8.334;2023-05-25T02:45:13;100508.25;;;9.71;72.02
30598;BME280;17365;48.878;8.334;2023-05-25T02:47:39;100504.63;;;9.55;73.42
30598;BME280;17365;48.878;8.334;2023-05-25T02:50:04;100506.16;;;9.41;74.39
30598;BME280;17365;48.878;8.334;2023-05-25T02:52:30;100514.19;;;9.62;72.87
30598;BME280;17365;48.878;8.334;2023-05-25T02:54:56;100520.25;;;9.63;73.01
30598;BME280;17365;48.878;8.334;2023-05-25T02:57:21;100513.22;;;9.51;73.54
30598;BME280;17365;48.878;8.334;2023-05-25T02:59:47;100519.19;;;9.49;74.11
30598;BME280;17365;48.878;8.334;2023-05-25T03:02:12;100516.59;;;9.47;74.22
30598;BME280;17365;48.878;8.334;2023-05-25T03:04:37;100521.75;;;9.44;74.75
30598;BME280;17365;48.878;8.334;2023-05-25T03:07:03;100524.44;;;9.53;74.17
30598;BME280;17365;48.878;8.334;2023-05-25T03:09:28;100525.09;;;9.37;74.66
30598;BME280;17365;48.878;8.334;2023-05-25T03:11:53;100528.53;;;9.36;74.72
30598;BME280;17365;48.878;8.334;2023-05-25T03:14:19;100529.94;;;9.14;75.00
30598;BME280;17365;48.878;8.334;2023-05-25T03:16:44;100537.16;;;9.35;74.72
30598;BME280;17365;48.878;8.334;2023-05-25T03:19:09;100540.63;;;9.39;73.90
30598;BME280;17365;48.878;8.334;2023-05-25T03:21:36;100541.16;;;9.15;74.15
30598;BME280;17365;48.878;8.334;2023-05-25T03:24:01;100550.44;;;8.99;75.63
30598;BME280;17365;48.878;8.334;2023-05-25T03:26:26;100550.13;;;8.81;76.88
30598;BME280;17365;48.878;8.334;2023-05-25T03:28:52;100555.94;;;9.22;75.09
30598;BME280;17365;48.878;8.334;2023-05-25T03:31:18;100562.16;;;9.34;74.09
30598;BME280;17365;48.878;8.334;2023-05-25T03:33:43;100560.13;;;9.12;74.63
30598;BME280;17365;48.878;8.334;2023-05-25T03:36:08;100562.66;;;9.09;75.22
30598;BME280;17365;48.878;8.334;2023-05-25T03:38:35;100557.66;;;9.20;75.20
30598;BME280;17365;48.878;8.334;2023-05-25T03:41:00;100559.22;;;9.10;75.39
30598;BME280;17365;48.878;8.334;2023-05-25T03:43:25;100564.25;;;8.99;76.23
30598;BME280;17365;48.878;8.334;2023-05-25T03:45:51;100565.94;;;8.96;76.00
30598;BME280;17365;48.878;8.334;2023-05-25T03:48:16;100556.78;;;9.19;75.69
30598;BME280;17365;48.878;8.334;2023-05-25T03:50:41;100560.28;;;9.24;75.11
30598;BME280;17365;48.878;8.334;2023-05-25T03:53:06;100552.63;;;9.29;74.57
30598;BME280;17365;48.878;8.334;2023-05-25T03:55:32;100554.38;;;9.33;74.77
30598;BME280;17365;48.878;8.334;2023-05-25T03:57:57;100557.00;;;9.36;74.65
30598;BME280;17365;48.878;8.334;2023-05-25T04:00:23;100555.28;;;9.35;74.60
30598;BME280;17365;48.878;8.334;2023-05-25T04:02:48;100562.03;;;9.25;74.33
30598;BME280;17365;48.878;8.334;2023-05-25T04:05:13;100564.06;;;9.48;74.23
30598;BME280;17365;48.878;8.334;2023-05-25T04:07:39;100564.81;;;9.39;74.70
30598;BME280;17365;48.878;8.334;2023-05-25T04:10:04;100560.75;;;9.56;74.65
30598;BME280;17365;48.878;8.334;2023-05-25T04:12:30;100572.81;;;9.54;73.90
30598;BME280;17365;48.878;8.334;2023-05-25T04:14:56;100555.97;;;9.88;72.34
30598;BME280;17365;48.878;8.334;2023-05-25T04:17:21;100562.72;;;9.74;72.68
30598;BME280;17365;48.878;8.334;2023-05-25T04:19:48;100562.25;;;10.09;72.64
30598;BME280;17365;48.878;8.334;2023-05-25T04:22:14;100572.56;;;10.06;71.60
30598;BME280;17365;48.878;8.334;2023-05-25T04:24:39;100574.56;;;10.28;71.66
30598;BME280;17365;48.878;8.334;2023-05-25T04:27:04;100569.69;;;10.59;70.42
30598;BME280;17365;48.878;8.334;2023-05-25T04:29:31;100567.09;;;9.80;72.64
30598;BME280;17365;48.878;8.334;2023-05-25T04:31:56;100571.22;;;10.38;71.17
30598;BME280;17365;48.878;8.334;2023-05-25T04:34:22;100568.13;;;10.76;69.50
30598;BME280;17365;48.878;8.334;2023-05-25T04:36:47;100574.38;;;11.05;68.49
30598;BME280;17365;48.878;8.334;2023-05-25T04:39:12;100570.22;;;11.30;66.72
30598;BME280;17365;48.878;8.334;2023-05-25T04:41:37;100581.31;;;11.09;66.88
30598;BME280;17365;48.878;8.334;2023-05-25T04:44:03;100580.78;;;11.62;65.53
30598;BME280;17365;48.878;8.334;2023-05-25T04:46:28;100579.41;;;10.87;67.60
30598;BME280;17365;48.878;8.334;2023-05-25T04:48:55;100588.53;;;11.55;65.80
30598;BME280;17365;48.878;8.334;2023-05-25T04:51:20;100579.97;;;11.70;65.14
30598;BME280;17365;48.878;8.334;2023-05-25T04:53:46;100586.75;;;11.43;65.73
30598;BME280;17365;48.878;8.334;2023-05-25T04:56:12;100593.72;;;11.49;65.47
30598;BME280;17365;48.878;8.334;2023-05-25T04:58:37;100593.66;;;11.40;66.26
30598;BME280;17365;48.878;8.334;2023-05-25T05:01:02;100597.25;;;11.61;65.57
30598;BME280;17365;48.878;8.334;2023-05-25T05:03:27;100598.97;;;11.61;65.30
30598;BME280;17365;48.878;8.334;2023-05-25T05:05:53;100593.56;;;11.21;67.54
30598;BME280;17365;48.878;8.334;2023-05-25T05:08:18;100590.13;;;11.30;67.20
30598;BME280;17365;48.878;8.334;2023-05-25T05:10:43;100601.50;;;11.49;64.92
30598;BME280;17365;48.878;8.334;2023-05-25T05:13:08;100599.78;;;11.54;67.34
30598;BME280;17365;48.878;8.334;2023-05-25T05:15:35;100603.03;;;11.21;66.26
30598;BME280;17365;48.878;8.334;2023-05-25T05:18:00;100594.50;;;11.35;66.53
30598;BME280;17365;48.878;8.334;2023-05-25T05:20:25;100597.56;;;12.45;63.31
30598;BME280;17365;48.878;8.334;2023-05-25T05:22:50;100605.38;;;12.36;63.43
30598;BME280;17365;48.878;8.334;2023-05-25T05:25:17;100595.69;;;11.92;64.97
30598;BME280;17365;48.878;8.334;2023-05-25T05:27:42;100601.84;;;12.22;64.09
30598;BME280;17365;48.878;8.334;2023-05-25T05:30:07;100603.59;;;12.14;63.60
30598;BME280;17365;48.878;8.334;2023-05-25T05:32:33;100608.88;;;12.46;63.43
30598;BME280;17365;48.878;8.334;2023-05-25T05:34:59;100604.50;;;12.28;62.43
30598;BME280;17365;48.878;8.334;2023-05-25T05:37:24;100616.69;;;12.47;62.33
30598;BME280;17365;48.878;8.334;2023-05-25T05:39:49;100613.22;;;12.53;61.97
30598;BME280;17365;48.878;8.334;2023-05-25T05:42:16;100609.75;;;12.51;62.25
30598;BME280;17365;48.878;8.334;2023-05-25T05:44:41;100615.78;;;12.38;60.79
30598;BME280;17365;48.878;8.334;2023-05-25T05:47:07;100613.13;;;12.13;63.08
30598;BME280;17365;48.878;8.334;2023-05-25T05:49:32;100612.38;;;12.75;61.20
30598;BME280;17365;48.878;8.334;2023-05-25T05:51:58;100614.03;;;12.34;62.66
30598;BME280;17365;48.878;8.334;2023-05-25T05:54:23;100615.84;;;12.62;61.25
30598;BME280;17365;48.878;8.334;2023-05-25T05:56:49;100621.94;;;12.70;61.31
30598;BME280;17365;48.878;8.334;2023-05-25T05:59:14;100610.63;;;12.74;61.86
30598;BME280;17365;48.878;8.334;2023-05-25T06:01:39;100619.16;;;12.05;63.51
30598;BME280;17365;48.878;8.334;2023-05-25T06:04:06;100624.47;;;12.40;63.37
30598;BME280;17365;48.878;8.334;2023-05-25T06:06:32;100619.28;;;12.52;62.58
30598;BME280;17365;48.878;8.334;2023-05-25T06:08:58;100628.00;;;12.57;61.61
30598;BME280;17365;48.878;8.334;2023-05-25T06:11:24;100627.94;;;12.40;63.71
30598;BME280;17365;48.878;8.334;2023-05-25T06:13:50;100631.47;;;12.71;62.54
30598;BME280;17365;48.878;8.334;2023-05-25T06:16:15;100622.78;;;13.13;61.23
30598;BME280;17365;48.878;8.334;2023-05-25T06:18:40;100634.03;;;12.53;61.89
30598;BME280;17365;48.878;8.334;2023-05-25T06:21:06;100638.41;;;12.57;62.21
30598;BME280;17365;48.878;8.334;2023-05-25T06:23:31;100628.88;;;12.71;61.69
30598;BME280;17365;48.878;8.334;2023-05-25T06:25:56;100640.06;;;12.44;62.79
30598;BME280;17365;48.878;8.334;2023-05-25T06:28:21;100646.25;;;12.98;59.94
30598;BME280;17365;48.878;8.334;2023-05-25T06:30:46;100634.09;;;12.83;61.21
30598;BME280;17365;48.878;8.334;2023-05-25T06:33:12;100644.53;;;13.03;60.63
30598;BME280;17365;48.878;8.334;2023-05-25T06:35:37;100640.19;;;13.30;59.16
30598;BME280;17365;48.878;8.334;2023-05-25T06:38:02;100650.63;;;13.22;59.31
30598;BME280;17365;48.878;8.334;2023-05-25T06:40:27;100650.59;;;13.24;58.54
30598;BME280;17365;48.878;8.334;2023-05-25T06:42:53;100654.09;;;13.32;58.72
30598;BME280;17365;48.878;8.334;2023-05-25T06:45:18;100659.25;;;13.58;57.24
30598;BME280;17365;48.878;8.334;2023-05-25T06:47:43;100652.31;;;12.85;59.86
30598;BME280;17365;48.878;8.334;2023-05-25T06:50:08;100646.28;;;13.29;58.55
30598;BME280;17365;48.878;8.334;2023-05-25T06:52:34;100654.91;;;13.63;57.71
30598;BME280;17365;48.878;8.334;2023-05-25T06:54:59;100649.72;;;13.51;57.74
30598;BME280;17365;48.878;8.334;2023-05-25T06:57:24;100660.16;;;13.42;57.42
30598;BME280;17365;48.878;8.334;2023-05-25T06:59:50;100652.34;;;13.40;57.92
30598;BME280;17365;48.878;8.334;2023-05-25T07:02:15;100659.31;;;13.29;58.23
30598;BME280;17365;48.878;8.334;2023-05-25T07:04:41;100659.31;;;13.20;58.97
30598;BME280;17365;48.878;8.334;2023-05-25T07:07:06;100659.31;;;13.27;58.46
30598;BME280;17365;48.878;8.334;2023-05-25T07:09:33;100653.19;;;13.56;58.07
30598;BME280;17365;48.878;8.334;2023-05-25T07:11:58;100644.47;;;13.75;57.83
30598;BME280;17365;48.878;8.334;2023-05-25T07:14:23;100640.97;;;13.85;57.12
30598;BME280;17365;48.878;8.334;2023-05-25T07:16:49;100634.81;;;14.02;56.95
30598;BME280;17365;48.878;8.334;2023-05-25T07:19:14;100635.72;;;13.88;57.25
30598;BME280;17365;48.878;8.334;2023-05-25T07:21:39;100634.75;;;14.20;56.62
30598;BME280;17365;48.878;8.334;2023-05-25T07:24:04;100637.31;;;14.29;56.43
30598;BME280;17365;48.878;8.334;2023-05-25T07:26:30;100633.91;;;14.16;56.63
30598;BME280;17365;48.878;8.334;2023-05-25T07:28:56;100637.34;;;14.21;56.32
30598;BME280;17365;48.878;8.334;2023-05-25T07:31:21;100631.28;;;14.12;57.17
30598;BME280;17365;48.878;8.334;2023-05-25T07:33:46;100640.72;;;14.42;56.30
30598;BME280;17365;48.878;8.334;2023-05-25T07:36:12;100631.16;;;14.45;56.23
30598;BME280;17365;48.878;8.334;2023-05-25T07:38:37;100622.44;;;14.45;56.05
30598;BME280;17365;48.878;8.334;2023-05-25T07:41:02;100616.28;;;14.56;56.24
30598;BME280;17365;48.878;8.334;2023-05-25T07:43:27;100612.00;;;14.43;56.35
30598;BME280;17365;48.878;8.334;2023-05-25T07:45:53;100618.69;;;14.89;55.60
30598;BME280;17365;48.878;8.334;2023-05-25T07:48:18;100623.16;;;14.74;55.24
30598;BME280;17365;48.878;8.334;2023-05-25T07:50:43;100629.22;;;14.76;56.07
30598;BME280;17365;48.878;8.334;2023-05-25T07:53:08;100633.53;;;14.79;56.22
30598;BME280;17365;48.878;8.334;2023-05-25T07:55:34;100628.06;;;15.12;54.93
30598;BME280;17365;48.878;8.334;2023-05-25T07:57:59;100628.78;;;15.31;54.82
30598;BME280;17365;48.878;8.334;2023-05-25T08:00:24;100628.78;;;15.27;54.69
30598;BME280;17365;48.878;8.334;2023-05-25T08:02:50;100628.59;;;15.48;54.89
30598;BME280;17365;48.878;8.334;2023-05-25T08:05:15;100627.25;;;15.07;55.29
30598;BME280;17365;48.878;8.334;2023-05-25T08:07:40;100634.56;;;15.62;54.47
30598;BME280;17365;48.878;8.334;2023-05-25T08:10:06;100633.78;;;15.51;54.80
30598;BME280;17365;48.878;8.334;2023-05-25T08:12:31;100639.94;;;15.47;55.09
30598;BME280;17365;48.878;8.334;2023-05-25T08:14:57;100634.38;;;15.82;53.99
30598;BME280;17365;48.878;8.334;2023-05-25T08:17:22;100647.59;;;15.68;54.55
30598;BME280;17365;48.878;8.334;2023-05-25T08:19:47;100638.72;;;15.82;54.03
30598;BME280;17365;48.878;8.334;2023-05-25T08:22:12;100647.41;;;15.87;54.22
30598;BME280;17365;48.878;8.334;2023-05-25T08:24:37;100652.78;;;15.75;53.92
30598;BME280;17365;48.878;8.334;2023-05-25T08:27:03;100638.50;;;16.03;53.99
30598;BME280;17365;48.878;8.334;2023-05-25T08:29:28;100640.63;;;16.40;53.02
30598;BME280;17365;48.878;8.334;2023-05-25T08:31:53;100640.56;;;16.46;52.96
30598;BME280;17365;48.878;8.334;2023-05-25T08:34:18;100642.22;;;16.50;53.00
30598;BME280;17365;48.878;8.334;2023-05-25T08:36:44;100639.13;;;16.85;52.12
30598;BME280;17365;48.878;8.334;2023-05-25T08:39:09;100646.47;;;16.60;52.79
30598;BME280;17365;48.878;8.334;2023-05-25T08:41:35;100646.81;;;16.96;52.71
30598;BME280;17365;48.878;8.334;2023-05-25T08:44:00;100648.75;;;16.84;52.55
30598;BME280;17365;48.878;8.334;2023-05-25T08:46:30;100646.47;;;16.60;53.10
30598;BME280;17365;48.878;8.334;2023-05-25T08:49:08;100642.94;;;16.61;53.00
30598;BME280;17365;48.878;8.334;2023-05-25T08:51:34;100639.44;;;16.62;52.61
30598;BME280;17365;48.878;8.334;2023-05-25T08:54:03;100644.69;;;16.62;53.34
30598;BME280;17365;48.878;8.334;2023-05-25T08:56:31;100641.25;;;17.15;52.14
30598;BME280;17365;48.878;8.334;2023-05-25T08:59:06;100647.47;;;17.10;52.85
30598;BME280;17365;48.878;8.334;2023-05-25T09:01:35;100642.38;;;16.39;54.38
30598;BME280;17365;48.878;8.334;2023-05-25T09:04:03;100642.97;;;17.18;53.29
30598;BME280;17365;48.878;8.334;2023-05-25T09:06:28;100647.31;;;16.60;53.79
30598;BME280;17365;48.878;8.334;2023-05-25T09:08:55;100647.44;;;17.13;52.66
30598;BME280;17365;48.878;8.334;2023-05-25T09:11:20;100647.16;;;17.28;52.53
30598;BME280;17365;48.878;8.334;2023-05-25T09:13:46;100642.81;;;17.27;52.13
30598;BME280;17365;48.878;8.334;2023-05-25T09:16:11;100640.63;;;17.01;53.29
30598;BME280;17365;48.878;8.334;2023-05-25T09:18:36;100634.72;;;17.39;52.51
30598;BME280;17365;48.878;8.334;2023-05-25T09:21:01;100637.34;;;17.39;52.93
30598;BME280;17365;48.878;8.334;2023-05-25T09:23:27;100635.81;;;17.28;52.74
30598;BME280;17365;48.878;8.334;2023-05-25T09:25:52;100636.53;;;17.37;52.29
30598;BME280;17365;48.878;8.334;2023-05-25T09:28:18;100627.50;;;17.52;52.97
30598;BME280;17365;48.878;8.334;2023-05-25T09:30:44;100641.03;;;17.79;52.20
30598;BME280;17365;48.878;8.334;2023-05-25T09:33:10;100642.97;;;17.69;52.76
30598;BME280;17365;48.878;8.334;2023-05-25T09:35:36;100647.16;;;17.79;52.25
30598;BME280;17365;48.878;8.334;2023-05-25T09:38:01;100651.34;;;17.88;52.03
30598;BME280;17365;48.878;8.334;2023-05-25T09:40:26;100637.94;;;18.03;51.65
30598;BME280;17365;48.878;8.334;2023-05-25T09:42:51;100633.28;;;18.16;51.94
30598;BME280;17365;48.878;8.334;2023-05-25T09:45:16;100634.91;;;18.21;51.53
30598;BME280;17365;48.878;8.334;2023-05-25T09:47:41;100639.47;;;18.12;51.89
30598;BME280;17365;48.878;8.334;2023-05-25T09:50:07;100639.06;;;18.31;50.66
30598;BME280;17365;48.878;8.334;2023-05-25T09:52:32;100629.88;;;18.12;51.39
30598;BME280;17365;48.878;8.334;2023-05-25T09:54:57;100631.41;;;18.21;51.26
30598;BME280;17365;48.878;8.334;2023-05-25T09:57:23;100627.44;;;18.43;51.07
30598;BME280;17365;48.878;8.334;2023-05-25T09:59:48;100624.88;;;18.40;51.30
30598;BME280;17365;48.878;8.334;2023-05-25T10:02:13;100632.25;;;18.23;52.26
30598;BME280;17365;48.878;8.334;2023-05-25T10:04:39;100632.75;;;18.40;50.84
30598;BME280;17365;48.878;8.334;2023-05-25T10:07:05;100629.19;;;18.43;51.47
30598;BME280;17365;48.878;8.334;2023-05-25T10:09:30;100629.38;;;18.35;51.05
30598;BME280;17365;48.878;8.334;2023-05-25T10:11:56;100632.25;;;18.23;51.40
30598;BME280;17365;48.878;8.334;2023-05-25T10:14:26;100630.84;;;18.48;51.05
30598;BME280;17365;48.878;8.334;2023-05-25T10:16:52;100624.41;;;18.61;50.45
30598;BME280;17365;48.878;8.334;2023-05-25T10:19:19;100631.69;;;18.49;50.27
30598;BME280;17365;48.878;8.334;2023-05-25T10:21:46;100645.09;;;18.77;49.58
30598;BME280;17365;48.878;8.334;2023-05-25T10:26:46;100626.69;;;19.12;48.93
30598;BME280;17365;48.878;8.334;2023-05-25T10:29:13;100635.88;;;18.96;48.78
30598;BME280;17365;48.878;8.334;2023-05-25T10:31:40;100634.31;;;18.87;49.29
30598;BME280;17365;48.878;8.334;2023-05-25T10:34:06;100636.00;;;18.92;48.97
30598;BME280;17365;48.878;8.334;2023-05-25T10:36:32;100619.00;;;19.05;48.73
30598;BME280;17365;48.878;8.334;2023-05-25T10:38:57;100630.34;;;19.41;47.54
30598;BME280;17365;48.878;8.334;2023-05-25T10:41:22;100620.09;;;19.30;47.75
30598;BME280;17365;48.878;8.334;2023-05-25T10:43:48;100629.06;;;19.23;47.99
30598;BME280;17365;48.878;8.334;2023-05-25T10:46:13;100635.31;;;19.19;47.83
30598;BME280;17365;48.878;8.334;2023-05-25T10:48:44;100627.19;;;19.28;47.54
30598;BME280;17365;48.878;8.334;2023-05-25T10:51:09;100629.91;;;19.24;47.37
30598;BME280;17365;48.878;8.334;2023-05-25T10:53:34;100624.50;;;19.64;46.50
30598;BME280;17365;48.878;8.334;2023-05-25T10:56:00;100621.69;;;19.70;46.29
30598;BME280;17365;48.878;8.334;2023-05-25T10:58:26;100632.13;;;19.74;46.25
30598;BME280;17365;48.878;8.334;2023-05-25T11:00:59;100632.56;;;19.58;46.80
30598;BME280;17365;48.878;8.334;2023-05-25T11:06:16;100616.06;;;19.84;46.04
30598;BME280;17365;48.878;8.334;2023-05-25T11:11:19;100619.94;;;19.36;46.53
30598;BME280;17365;48.878;8.334;2023-05-25T11:13:45;100627.53;;;19.47;46.26
30598;BME280;17365;48.878;8.334;2023-05-25T11:16:11;100627.78;;;20.03;45.64
30598;BME280;17365;48.878;8.334;2023-05-25T11:18:37;100619.63;;;20.12;45.14
30598;BME280;17365;48.878;8.334;2023-05-25T11:21:13;100633.06;;;20.32;45.00
30598;BME280;17365;48.878;8.334;2023-05-25T11:26:28;100622.91;;;20.20;44.96
30598;BME280;17365;48.878;8.334;2023-05-25T11:28:53;100614.56;;;20.06;45.08
30598;BME280;17365;48.878;8.334;2023-05-25T11:31:28;100613.75;;;20.02;45.08
30598;BME280;17365;48.878;8.334;2023-05-25T11:34:03;100629.09;;;20.19;45.42
30598;BME280;17365;48.878;8.334;2023-05-25T11:36:34;100615.66;;;19.97;45.75
30598;BME280;17365;48.878;8.334;2023-05-25T11:39:00;100619.31;;;19.92;45.65
30598;BME280;17365;48.878;8.334;2023-05-25T11:41:25;100620.97;;;19.96;45.14
30598;BME280;17365;48.878;8.334;2023-05-25T11:43:52;100615.00;;;20.20;44.73
30598;BME280;17365;48.878;8.334;2023-05-25T11:46:17;100611.56;;;20.18;44.54
30598;BME280;17365;48.878;8.334;2023-05-25T11:48:50;100613.13;;;20.81;44.19
30598;BME280;17365;48.878;8.334;2023-05-25T11:51:16;100604.31;;;21.09;43.00
30598;BME280;17365;48.878;8.334;2023-05-25T11:53:43;100604.22;;;20.85;42.54
30598;BME280;17365;48.878;8.334;2023-05-25T11:56:09;100605.13;;;21.11;43.26
30598;BME280;17365;48.878;8.334;2023-05-25T11:58:35;100612.63;;;20.42;44.31
30598;BME280;17365;48.878;8.334;2023-05-25T12:01:16;100606.22;;;20.77;43.05
30598;BME280;17365;48.878;8.334;2023-05-25T12:03:42;100596.75;;;20.98;43.35
30598;BME280;17365;48.878;8.334;2023-05-25T12:06:07;100611.09;;;20.89;43.07
30598;BME280;17365;48.878;8.334;2023-05-25T12:08:33;100595.78;;;21.01;43.20
30598;BME280;17365;48.878;8.334;2023-05-25T12:10:58;100602.59;;;21.08;42.73
30598;BME280;17365;48.878;8.334;2023-05-25T12:13:24;100613.16;;;21.06;42.38
30598;BME280;17365;48.878;8.334;2023-05-25T12:15:50;100609.16;;;20.94;43.33
30598;BME280;17365;48.878;8.334;2023-05-25T12:18:16;100594.94;;;21.25;43.06
30598;BME280;17365;48.878;8.334;2023-05-25T12:20:41;100603.75;;;21.50;41.79
30598;BME280;17365;48.878;8.334;2023-05-25T12:23:07;100597.69;;;21.48;42.02
30598;BME280;17365;48.878;8.334;2023-05-25T12:25:32;100596.13;;;21.16;43.07
30598;BME280;17365;48.878;8.334;2023-05-25T12:30:36;100596.44;;;21.59;42.53
30598;BME280;17365;48.878;8.334;2023-05-25T12:33:01;100593.91;;;21.56;41.99
30598;BME280;17365;48.878;8.334;2023-05-25T12:35:27;100609.75;;;21.56;42.08
30598;BME280;17365;48.878;8.334;2023-05-25T12:40:36;100606.88;;;21.62;41.28
30598;BME280;17365;48.878;8.334;2023-05-25T12:43:01;100586.41;;;21.68;41.31
30598;BME280;17365;48.878;8.334;2023-05-25T12:45:26;100586.69;;;21.36;41.78
30598;BME280;17365;48.878;8.334;2023-05-25T12:47:51;100596.06;;;21.44;41.59
30598;BME280;17365;48.878;8.334;2023-05-25T12:50:17;100600.47;;;21.17;41.88
30598;BME280;17365;48.878;8.334;2023-05-25T12:52:43;100592.50;;;21.45;41.74
30598;BME280;17365;48.878;8.334;2023-05-25T12:55:22;100587.88;;;21.52;41.88
30598;BME280;17365;48.878;8.334;2023-05-25T12:57:54;100588.47;;;21.84;41.55
30598;BME280;17365;48.878;8.334;2023-05-25T13:00:22;100590.94;;;21.65;41.55
30598;BME280;17365;48.878;8.334;2023-05-25T13:02:48;100586.53;;;21.65;40.80
30598;BME280;17365;48.878;8.334;2023-05-25T13:05:19;100581.41;;;21.84;41.29
30598;BME280;17365;48.878;8.334;2023-05-25T13:07:45;100587.59;;;21.60;41.62
30598;BME280;17365;48.878;8.334;2023-05-25T13:10:14;100582.31;;;21.60;41.88